Time;durP1;ratioP1;P1;durP2;ratioP2;P2;SDS_P1;SDS_P2;PMS_P1;PMS_P2;Temp;Humidity;BMP_temperature;BMP_pressure;BME280_temperature;BME280_humidity;BME280_pressure;Samples;Min_cycle;Max_cycle;Signal;HPM_P1;HPM_P2
2024/02/05 00:00:06;;;;;;;235.25;62.88;;;;;;;;;;4992365;28;20181;-44
2024/02/05 00:02:32;;;;;;;232.40;60.50;;;;;;;;;;4982796;28;20283;-44
2024/02/05 00:04:57;;;;;;;232.63;60.80;;;;;;;;;;4988076;28;20255;-44
2024/02/05 00:07:23;;;;;;;234.30;63.07;;;;;;;;;;4992072;28;20470;-44
2024/02/05 00:09:49;;;;;;;234.17;62.73;;;;;;;;;;4992586;28;20424;-44
2024/02/05 00:12:16;;;;;;;233.97;62.23;;;;;;;;;;4991406;28;20432;-44
2024/02/05 00:14:42;;;;;;;232.07;60.53;;;;;;;;;;4992198;28;20454;-44
2024/02/05 00:17:09;;;;;;;236.32;63.40;;;;;;;;;;4992184;28;20225;-44
2024/02/05 00:19:35;;;;;;;234.43;62.50;;;;;;;;;;4992199;28;20201;-44
2024/02/05 00:22:02;;;;;;;231.60;59.55;;;;;;;;;;4985560;28;20205;-44
2024/02/05 00:24:28;;;;;;;235.68;63.08;;;;;;;;;;4992096;28;20177;-44
2024/02/05 00:26:53;;;;;;;231.03;59.87;;;;;;;;;;4989905;28;20305;-44
2024/02/05 00:29:20;;;;;;;233.03;60.50;;;;;;;;;;4988165;28;20419;-44
2024/02/05 00:31:45;;;;;;;233.05;61.00;;;;;;;;;;4985729;28;20434;-44
2024/02/05 00:34:12;;;;;;;230.57;59.17;;;;;;;;;;4984953;28;20209;-44
2024/02/05 00:36:38;;;;;;;231.77;59.72;;;;;;;;;;4991263;28;20799;-44
2024/02/05 00:39:05;;;;;;;231.83;62.30;;;;;;;;;;4991986;28;20251;-45
2024/02/05 00:41:31;;;;;;;231.15;59.72;;;;;;;;;;4991214;28;20419;-45
2024/02/05 00:43:57;;;;;;;230.50;59.47;;;;;;;;;;4988783;28;20218;-44
2024/02/05 00:46:23;;;;;;;230.27;59.50;;;;;;;;;;4988181;28;20212;-44
2024/02/05 00:48:49;;;;;;;229.50;58.33;;;;;;;;;;4995817;28;20408;-44
2024/02/05 00:51:15;;;;;;;233.48;61.15;;;;;;;;;;4994615;28;20209;-44
2024/02/05 00:53:41;;;;;;;231.20;61.17;;;;;;;;;;4995787;28;20275;-44
2024/02/05 00:56:07;;;;;;;231.87;61.27;;;;;;;;;;4995815;28;20624;-44
2024/02/05 00:58:33;;;;;;;228.67;59.03;;;;;;;;;;4995590;28;20464;-44
2024/02/05 01:00:59;;;;;;;230.97;60.87;;;;;;;;;;4994905;28;20430;-43
2024/02/05 01:03:25;;;;;;;230.03;59.57;;;;;;;;;;4995929;28;20444;-44
2024/02/05 01:05:51;;;;;;;229.23;59.37;;;;;;;;;;4995299;28;20427;-44
2024/02/05 01:08:17;;;;;;;232.10;61.37;;;;;;;;;;4995257;28;20443;-44
2024/02/05 01:10:43;;;;;;;234.33;62.97;;;;;;;;;;4994757;28;20895;-44
2024/02/05 01:13:09;;;;;;;231.40;59.97;;;;;;;;;;4995261;28;20906;-44
2024/02/05 01:15:35;;;;;;;228.37;60.13;;;;;;;;;;4992951;28;20184;-44
2024/02/05 01:18:02;;;;;;;229.17;59.10;;;;;;;;;;4995031;28;20532;-44
2024/02/05 01:20:28;;;;;;;233.27;63.58;;;;;;;;;;4994487;28;20407;-44
2024/02/05 01:22:55;;;;;;;231.70;60.17;;;;;;;;;;4990086;28;20205;-45
2024/02/05 01:25:21;;;;;;;233.43;63.15;;;;;;;;;;4993682;28;20562;-44
2024/02/05 01:27:47;;;;;;;232.60;61.00;;;;;;;;;;4995336;28;20183;-44
2024/02/05 01:30:16;;;;;;;231.82;60.42;;;;;;;;;;4995115;28;20412;-44
2024/02/05 01:32:42;;;;;;;230.30;59.08;;;;;;;;;;4994242;28;20373;-44
2024/02/05 01:35:09;;;;;;;231.17;59.60;;;;;;;;;;4990000;28;20687;-43
2024/02/05 01:37:35;;;;;;;231.07;59.65;;;;;;;;;;4995087;28;20611;-44
2024/02/05 01:40:01;;;;;;;233.55;60.55;;;;;;;;;;4994954;28;20266;-44
2024/02/05 01:42:27;;;;;;;233.90;62.15;;;;;;;;;;4994150;28;20633;-44
2024/02/05 01:44:53;;;;;;;231.57;60.95;;;;;;;;;;4994898;28;20639;-44
2024/02/05 01:47:20;;;;;;;234.60;63.20;;;;;;;;;;4994751;28;20190;-44
2024/02/05 01:49:47;;;;;;;232.45;61.42;;;;;;;;;;4994830;28;20564;-44
2024/02/05 01:52:16;;;;;;;232.05;61.42;;;;;;;;;;4993973;28;20202;-44
2024/02/05 01:54:42;;;;;;;233.63;61.30;;;;;;;;;;4994687;28;20178;-44
2024/02/05 01:57:10;;;;;;;233.50;61.92;;;;;;;;;;4994170;28;20209;-44
2024/02/05 01:59:37;;;;;;;232.43;61.25;;;;;;;;;;4994273;28;20202;-44
2024/02/05 02:02:03;;;;;;;234.35;62.60;;;;;;;;;;4992863;28;20198;-43
2024/02/05 02:04:29;;;;;;;232.25;60.70;;;;;;;;;;4992543;28;20177;-45
2024/02/05 02:06:55;;;;;;;235.07;63.10;;;;;;;;;;4994061;28;20182;-44
2024/02/05 02:09:22;;;;;;;232.50;60.40;;;;;;;;;;4993785;28;20193;-44
2024/02/05 02:11:48;;;;;;;233.80;61.72;;;;;;;;;;4993501;28;20450;-44
2024/02/05 02:14:14;;;;;;;233.07;60.60;;;;;;;;;;4994070;28;20267;-44
2024/02/05 02:16:40;;;;;;;234.83;64.77;;;;;;;;;;4994315;28;20231;-44
2024/02/05 02:19:20;;;;;;;232.57;61.03;;;;;;;;;;4994225;28;20416;-44
2024/02/05 02:21:47;;;;;;;235.57;63.05;;;;;;;;;;4990061;28;20771;-45
2024/02/05 02:24:13;;;;;;;233.82;62.03;;;;;;;;;;4991477;28;20199;-44
2024/02/05 02:26:39;;;;;;;232.23;60.47;;;;;;;;;;4994489;28;20183;-44
2024/02/05 02:29:04;;;;;;;232.63;61.10;;;;;;;;;;4986267;28;20551;-43
2024/02/05 02:31:32;;;;;;;231.80;59.97;;;;;;;;;;4993128;28;20799;-44
2024/02/05 02:34:19;;;;;;;233.35;61.72;;;;;;;;;;4994141;28;20413;-44
2024/02/05 02:36:55;;;;;;;234.43;62.67;;;;;;;;;;4991653;28;20755;-44
2024/02/05 02:39:25;;;;;;;231.65;59.72;;;;;;;;;;4992388;28;20168;-44
2024/02/05 02:41:54;;;;;;;234.25;62.38;;;;;;;;;;4993001;28;20203;-44
2024/02/05 02:44:20;;;;;;;234.30;61.35;;;;;;;;;;4993726;28;20184;-44
2024/02/05 02:46:46;;;;;;;233.00;60.95;;;;;;;;;;4993785;28;20269;-44
2024/02/05 02:49:12;;;;;;;232.67;61.97;;;;;;;;;;4993696;28;20660;-44
2024/02/05 02:51:38;;;;;;;232.53;60.50;;;;;;;;;;4992963;28;20522;-44
2024/02/05 02:54:04;;;;;;;234.17;61.40;;;;;;;;;;4993515;28;20448;-44
2024/02/05 02:56:30;;;;;;;233.55;61.35;;;;;;;;;;4993279;28;20409;-44
2024/02/05 03:01:59;;;;;;;234.05;63.40;;;;;;;;;;4992421;28;20487;-44
2024/02/05 03:04:25;;;;;;;231.80;59.50;;;;;;;;;;4993607;28;20637;-43
2024/02/05 03:06:51;;;;;;;234.07;62.60;;;;;;;;;;4993342;28;20911;-44
2024/02/05 03:09:17;;;;;;;233.07;60.70;;;;;;;;;;4992405;28;20467;-43
2024/02/05 03:11:43;;;;;;;234.03;61.17;;;;;;;;;;4992392;28;20491;-44
2024/02/05 03:14:09;;;;;;;233.17;60.40;;;;;;;;;;4991921;28;20431;-44
2024/02/05 03:16:35;;;;;;;232.40;61.13;;;;;;;;;;4993049;28;20884;-44
2024/02/05 03:19:01;;;;;;;233.50;61.17;;;;;;;;;;4993337;28;20177;-44
2024/02/05 03:21:27;;;;;;;234.37;62.80;;;;;;;;;;4992159;28;20423;-44
2024/02/05 03:23:52;;;;;;;233.03;61.10;;;;;;;;;;4993045;28;20475;-44
2024/02/05 03:26:18;;;;;;;231.93;59.77;;;;;;;;;;4993727;28;20496;-44
2024/02/05 03:28:44;;;;;;;235.47;65.77;;;;;;;;;;4992986;28;20404;-44
2024/02/05 03:31:10;;;;;;;233.40;60.90;;;;;;;;;;4991989;28;20432;-44
2024/02/05 03:33:36;;;;;;;234.17;62.20;;;;;;;;;;4992888;28;20411;-44
2024/02/05 03:36:04;;;;;;;232.83;61.47;;;;;;;;;;4992839;28;20433;-44
2024/02/05 03:38:29;;;;;;;230.73;59.78;;;;;;;;;;4992641;28;20487;-45
2024/02/05 03:40:56;;;;;;;230.93;59.40;;;;;;;;;;4991972;28;20188;-43
2024/02/05 03:43:22;;;;;;;232.50;59.53;;;;;;;;;;4990332;28;20942;-44
2024/02/05 03:45:48;;;;;;;230.30;60.97;;;;;;;;;;4992599;28;20181;-44
2024/02/05 03:48:15;;;;;;;230.97;59.47;;;;;;;;;;4992615;28;20416;-43
2024/02/05 03:50:40;;;;;;;239.95;67.07;;;;;;;;;;4991798;28;20413;-44
2024/02/05 03:53:06;;;;;;;232.20;60.70;;;;;;;;;;4992582;28;20184;-44
2024/02/05 03:55:32;;;;;;;232.17;60.53;;;;;;;;;;4991419;28;20417;-43
2024/02/05 03:57:59;;;;;;;232.00;60.23;;;;;;;;;;4992405;28;20496;-43
2024/02/05 04:00:25;;;;;;;235.75;63.13;;;;;;;;;;4991956;28;20428;-44
2024/02/05 04:02:51;;;;;;;232.10;61.07;;;;;;;;;;4992028;28;20209;-43
2024/02/05 04:05:20;;;;;;;233.63;61.70;;;;;;;;;;4992339;28;20422;-43
2024/02/05 04:07:46;;;;;;;233.13;60.65;;;;;;;;;;4992416;28;20228;-43
2024/02/05 04:10:12;;;;;;;236.83;64.93;;;;;;;;;;4991117;28;20589;-44
2024/02/05 04:12:38;;;;;;;233.10;61.80;;;;;;;;;;4991544;28;20443;-45
2024/02/05 04:15:04;;;;;;;231.37;61.30;;;;;;;;;;4992293;28;20182;-43
2024/02/05 04:17:30;;;;;;;233.93;62.83;;;;;;;;;;4990933;28;20456;-43
2024/02/05 04:19:56;;;;;;;233.30;62.17;;;;;;;;;;4987763;28;20597;-43
2024/02/05 04:22:22;;;;;;;234.93;61.20;;;;;;;;;;4988135;28;20463;-43
2024/02/05 04:24:48;;;;;;;234.27;62.57;;;;;;;;;;4990928;28;20431;-44
2024/02/05 04:27:14;;;;;;;234.10;63.00;;;;;;;;;;4989430;28;20419;-44
2024/02/05 04:29:40;;;;;;;233.77;63.85;;;;;;;;;;4992110;28;20419;-43
2024/02/05 04:32:06;;;;;;;232.87;62.43;;;;;;;;;;4991215;28;20214;-44
2024/02/05 04:34:32;;;;;;;232.90;60.63;;;;;;;;;;4992148;28;20462;-44
2024/02/05 04:36:58;;;;;;;234.05;60.22;;;;;;;;;;4992765;28;20200;-43
2024/02/05 04:39:24;;;;;;;234.27;62.60;;;;;;;;;;4991844;28;20178;-44
2024/02/05 04:41:51;;;;;;;234.53;61.70;;;;;;;;;;4991021;28;20424;-45
2024/02/05 04:44:17;;;;;;;233.50;62.53;;;;;;;;;;4987929;28;20790;-45
2024/02/05 04:46:43;;;;;;;234.63;61.85;;;;;;;;;;4991948;28;20225;-44
2024/02/05 04:49:09;;;;;;;235.55;62.72;;;;;;;;;;4984545;28;20186;-44
2024/02/05 04:51:35;;;;;;;231.20;59.55;;;;;;;;;;4990218;28;20561;-43
2024/02/05 04:54:01;;;;;;;234.25;61.90;;;;;;;;;;4989926;28;20166;-44
2024/02/05 04:56:27;;;;;;;235.13;64.03;;;;;;;;;;4991243;28;20182;-43
2024/02/05 04:58:53;;;;;;;234.27;61.67;;;;;;;;;;4991840;28;20461;-44
2024/02/05 05:01:19;;;;;;;234.93;63.57;;;;;;;;;;4991034;28;20435;-44
2024/02/05 05:03:45;;;;;;;232.03;60.50;;;;;;;;;;4991843;28;20411;-44
2024/02/05 05:06:11;;;;;;;231.73;61.60;;;;;;;;;;4991731;28;20420;-44
2024/02/05 05:08:37;;;;;;;232.87;60.77;;;;;;;;;;4991789;28;20435;-44
2024/02/05 05:11:03;;;;;;;232.50;60.50;;;;;;;;;;4990884;28;20845;-44
2024/02/05 05:13:29;;;;;;;235.50;62.92;;;;;;;;;;4991756;28;20400;-44
2024/02/05 05:15:56;;;;;;;232.25;62.15;;;;;;;;;;4991737;28;20192;-44
2024/02/05 05:18:22;;;;;;;232.13;62.30;;;;;;;;;;4991586;28;20247;-43
2024/02/05 05:20:48;;;;;;;238.00;66.27;;;;;;;;;;4990881;28;20185;-44
2024/02/05 05:23:15;;;;;;;230.95;59.80;;;;;;;;;;4991416;28;20470;-43
2024/02/05 05:25:42;;;;;;;232.55;61.72;;;;;;;;;;4991576;28;20653;-44
2024/02/05 05:28:08;;;;;;;231.80;60.42;;;;;;;;;;4991578;28;20538;-44
2024/02/05 05:30:34;;;;;;;241.07;71.50;;;;;;;;;;4987831;28;20634;-44
2024/02/05 05:33:00;;;;;;;231.30;59.65;;;;;;;;;;4988367;28;20408;-44
2024/02/05 05:35:26;;;;;;;234.17;63.57;;;;;;;;;;4994848;28;20212;-44
2024/02/05 05:37:52;;;;;;;229.13;59.43;;;;;;;;;;4994856;28;20556;-44
2024/02/05 05:40:18;;;;;;;234.10;62.35;;;;;;;;;;4994596;28;20408;-42
2024/02/05 05:42:44;;;;;;;234.23;63.13;;;;;;;;;;4994303;28;20211;-44
2024/02/05 05:45:10;;;;;;;233.23;61.00;;;;;;;;;;4995053;28;20408;-43
2024/02/05 05:47:37;;;;;;;232.27;61.57;;;;;;;;;;4993934;28;20496;-44
2024/02/05 05:50:03;;;;;;;234.07;62.13;;;;;;;;;;4994144;28;20415;-43
2024/02/05 05:52:31;;;;;;;233.57;62.90;;;;;;;;;;4993644;28;20185;-43
2024/02/05 05:54:57;;;;;;;237.00;66.63;;;;;;;;;;4993923;28;20177;-43
2024/02/05 05:57:23;;;;;;;234.20;64.33;;;;;;;;;;4994234;28;20278;-43
2024/02/05 05:59:49;;;;;;;235.53;63.17;;;;;;;;;;4994128;28;20409;-43
2024/02/05 06:02:15;;;;;;;235.13;64.97;;;;;;;;;;4993416;28;20927;-43
2024/02/05 06:04:41;;;;;;;231.98;61.47;;;;;;;;;;4993988;28;20867;-43
2024/02/05 06:07:08;;;;;;;235.67;64.47;;;;;;;;;;4993739;28;20272;-44
2024/02/05 06:09:34;;;;;;;233.98;63.50;;;;;;;;;;4993907;28;20966;-43
2024/02/05 06:12:02;;;;;;;234.73;63.97;;;;;;;;;;4993062;28;20606;-43
2024/02/05 06:14:28;;;;;;;234.77;64.93;;;;;;;;;;4993908;28;20188;-43
2024/02/05 06:16:54;;;;;;;233.68;63.97;;;;;;;;;;4993661;28;20697;-43
2024/02/05 06:19:20;;;;;;;234.77;64.90;;;;;;;;;;4991885;28;20183;-43
2024/02/05 06:21:46;;;;;;;235.73;64.20;;;;;;;;;;4992432;28;20455;-44
2024/02/05 06:24:14;;;;;;;236.43;64.77;;;;;;;;;;4992776;28;20419;-43
2024/02/05 06:26:40;;;;;;;235.65;64.78;;;;;;;;;;4990382;28;20415;-44
2024/02/05 06:29:07;;;;;;;234.45;64.57;;;;;;;;;;4990340;28;20189;-44
2024/02/05 06:31:32;;;;;;;234.88;63.17;;;;;;;;;;4993336;28;20656;-44
2024/02/05 06:33:58;;;;;;;231.73;60.87;;;;;;;;;;4994008;28;20223;-44
2024/02/05 06:36:25;;;;;;;233.47;63.17;;;;;;;;;;4993744;28;20426;-44
2024/02/05 06:38:51;;;;;;;233.98;61.97;;;;;;;;;;4993703;28;20641;-43
2024/02/05 06:41:17;;;;;;;234.75;62.78;;;;;;;;;;4992939;28;20193;-43
2024/02/05 06:43:45;;;;;;;232.53;61.27;;;;;;;;;;4993533;28;20183;-43
2024/02/05 06:46:12;;;;;;;236.02;66.93;;;;;;;;;;4993384;28;20413;-43
2024/02/05 06:48:38;;;;;;;234.00;63.80;;;;;;;;;;4993704;28;20256;-44
2024/02/05 06:51:04;;;;;;;232.67;62.20;;;;;;;;;;4992834;28;20277;-44
2024/02/05 06:53:30;;;;;;;233.65;62.08;;;;;;;;;;4993550;28;20412;-44
2024/02/05 06:55:57;;;;;;;232.07;63.72;;;;;;;;;;4993571;28;20259;-43
2024/02/05 06:58:23;;;;;;;232.52;62.88;;;;;;;;;;4992976;28;20263;-43
2024/02/05 07:00:49;;;;;;;232.88;63.92;;;;;;;;;;4990843;28;20178;-43
2024/02/05 07:03:15;;;;;;;232.30;61.87;;;;;;;;;;4993343;28;20176;-44
2024/02/05 07:05:41;;;;;;;233.18;64.25;;;;;;;;;;4993243;28;20405;-44
2024/02/05 07:08:07;;;;;;;232.37;62.77;;;;;;;;;;4993384;28;20192;-43
2024/02/05 07:10:33;;;;;;;237.00;66.50;;;;;;;;;;4992613;28;20467;-42
2024/02/05 07:12:59;;;;;;;231.87;62.00;;;;;;;;;;4992957;28;20443;-43
2024/02/05 07:15:25;;;;;;;232.53;63.37;;;;;;;;;;4993214;28;20418;-43
2024/02/05 07:17:51;;;;;;;233.45;64.00;;;;;;;;;;4993072;28;20459;-43
2024/02/05 07:20:17;;;;;;;236.57;67.75;;;;;;;;;;4992776;28;20252;-43
2024/02/05 07:22:43;;;;;;;243.13;71.30;;;;;;;;;;4990698;28;20311;-43
2024/02/05 07:25:09;;;;;;;235.03;64.23;;;;;;;;;;4990517;28;20503;-43
2024/02/05 07:27:37;;;;;;;236.83;66.73;;;;;;;;;;4993319;28;20408;-44
2024/02/05 07:30:03;;;;;;;234.27;64.75;;;;;;;;;;4992863;28;20535;-44
2024/02/05 07:32:29;;;;;;;231.68;62.30;;;;;;;;;;4992037;28;20199;-43
2024/02/05 07:34:56;;;;;;;235.70;66.13;;;;;;;;;;4992521;28;20202;-43
2024/02/05 07:37:22;;;;;;;235.55;64.13;;;;;;;;;;4992628;28;20282;-44
2024/02/05 07:39:48;;;;;;;237.48;66.07;;;;;;;;;;4992597;28;20173;-43
2024/02/05 07:42:14;;;;;;;238.23;67.67;;;;;;;;;;4990503;28;20208;-43
2024/02/05 07:44:40;;;;;;;235.57;65.50;;;;;;;;;;4990652;28;20487;-43
2024/02/05 07:47:07;;;;;;;233.30;63.78;;;;;;;;;;4991513;28;20427;-43
2024/02/05 07:49:33;;;;;;;232.70;62.55;;;;;;;;;;4991269;28;20178;-43
2024/02/05 07:51:59;;;;;;;235.13;65.93;;;;;;;;;;4991725;28;20686;-43
2024/02/05 07:54:27;;;;;;;231.43;60.00;;;;;;;;;;4992117;28;20177;-43
2024/02/05 07:56:54;;;;;;;231.30;61.88;;;;;;;;;;4991797;28;20174;-43
2024/02/05 07:59:20;;;;;;;233.93;63.58;;;;;;;;;;4992497;28;20160;-45
2024/02/05 08:01:46;;;;;;;233.00;62.80;;;;;;;;;;4991461;28;20250;-43
2024/02/05 08:04:12;;;;;;;234.93;63.63;;;;;;;;;;4992358;28;20411;-43
2024/02/05 08:06:38;;;;;;;231.85;61.38;;;;;;;;;;4992391;28;20169;-44
2024/02/05 08:09:04;;;;;;;233.43;63.07;;;;;;;;;;4992532;28;20178;-44
2024/02/05 08:11:30;;;;;;;233.27;63.40;;;;;;;;;;4991527;28;20474;-43
2024/02/05 08:13:56;;;;;;;232.57;62.95;;;;;;;;;;4992598;28;20407;-43
2024/02/05 08:16:22;;;;;;;246.73;76.40;;;;;;;;;;4988706;28;20597;-44
2024/02/05 08:18:48;;;;;;;234.38;64.13;;;;;;;;;;4981342;28;20564;-43
2024/02/05 08:21:15;;;;;;;232.47;63.47;;;;;;;;;;4981069;28;20288;-44
2024/02/05 08:23:41;;;;;;;233.82;64.00;;;;;;;;;;4985600;28;20518;-43
2024/02/05 08:26:07;;;;;;;235.30;66.47;;;;;;;;;;4992008;28;20215;-43
2024/02/05 08:28:33;;;;;;;234.43;68.22;;;;;;;;;;4988709;28;20823;-42
2024/02/05 08:30:59;;;;;;;233.75;68.10;;;;;;;;;;4986107;28;20205;-44
2024/02/05 08:33:25;;;;;;;240.65;72.35;;;;;;;;;;4984228;28;20193;-43
2024/02/05 08:35:52;;;;;;;235.83;66.50;;;;;;;;;;4989843;28;20235;-44
2024/02/05 08:38:18;;;;;;;235.43;65.22;;;;;;;;;;4989925;28;20492;-43
2024/02/05 08:40:44;;;;;;;240.10;71.07;;;;;;;;;;4990229;28;20200;-44
2024/02/05 08:43:10;;;;;;;233.48;63.88;;;;;;;;;;4990343;28;20405;-43
2024/02/05 08:45:36;;;;;;;233.33;65.27;;;;;;;;;;4991928;28;20275;-44
2024/02/05 08:48:02;;;;;;;233.73;65.47;;;;;;;;;;4992001;28;20900;-44
2024/02/05 08:50:33;;;;;;;236.20;68.45;;;;;;;;;;4991259;28;20264;-43
2024/02/05 08:53:00;;;;;;;234.27;66.22;;;;;;;;;;4992132;28;20555;-44
2024/02/05 08:55:25;;;;;;;235.77;66.53;;;;;;;;;;4991867;28;20188;-43
2024/02/05 08:57:52;;;;;;;234.57;67.07;;;;;;;;;;4991879;28;20284;-43
2024/02/05 09:00:19;;;;;;;237.57;70.35;;;;;;;;;;4991527;28;20404;-43
2024/02/05 09:02:45;;;;;;;234.70;66.43;;;;;;;;;;4991292;28;20202;-43
2024/02/05 09:05:11;;;;;;;233.90;66.95;;;;;;;;;;4991948;28;20173;-44
2024/02/05 09:07:37;;;;;;;234.35;64.95;;;;;;;;;;4993880;28;20188;-43
2024/02/05 09:10:03;;;;;;;262.83;95.70;;;;;;;;;;4994371;28;20863;-44
2024/02/05 09:12:29;;;;;;;235.23;66.72;;;;;;;;;;4994948;28;20211;-43
2024/02/05 09:14:55;;;;;;;234.90;66.95;;;;;;;;;;4995577;28;20185;-43
2024/02/05 09:17:22;;;;;;;238.03;68.40;;;;;;;;;;4993161;28;20192;-43
2024/02/05 09:19:49;;;;;;;235.80;68.85;;;;;;;;;;4989668;28;20412;-43
2024/02/05 09:22:15;;;;;;;236.18;66.28;;;;;;;;;;4994347;28;20189;-43
2024/02/05 09:24:44;;;;;;;233.63;65.20;;;;;;;;;;4995468;28;20185;-50
2024/02/05 09:27:10;;;;;;;239.77;70.10;;;;;;;;;;4995250;28;20254;-43
2024/02/05 09:29:36;;;;;;;238.07;70.47;;;;;;;;;;4995390;28;20272;-44
2024/02/05 09:32:02;;;;;;;238.17;70.43;;;;;;;;;;4994491;28;20432;-43
2024/02/05 09:34:28;;;;;;;235.85;67.95;;;;;;;;;;4995057;28;20419;-44
2024/02/05 09:36:54;;;;;;;236.70;69.53;;;;;;;;;;4999789;28;20693;-44
2024/02/05 09:39:20;;;;;;;240.90;72.65;;;;;;;;;;4994884;28;20885;-43
2024/02/05 09:41:47;;;;;;;238.70;70.20;;;;;;;;;;4994206;28;20197;-43
2024/02/05 09:44:14;;;;;;;235.43;66.95;;;;;;;;;;4979569;28;20418;-43
2024/02/05 09:46:43;;;;;;;241.10;73.88;;;;;;;;;;4982622;28;20205;-43
2024/02/05 09:49:09;;;;;;;241.48;73.93;;;;;;;;;;4991481;28;20181;-43
2024/02/05 09:51:38;;;;;;;243.07;74.70;;;;;;;;;;4991825;28;20198;-43
2024/02/05 09:54:05;;;;;;;240.18;70.95;;;;;;;;;;4992208;28;20517;-43
2024/02/05 09:56:31;;;;;;;243.38;76.40;;;;;;;;;;4993028;28;20176;-44
2024/02/05 09:58:57;;;;;;;239.15;71.18;;;;;;;;;;4992997;28;20273;-43
2024/02/05 10:01:27;;;;;;;237.75;69.97;;;;;;;;;;4993677;28;20196;-43
2024/02/05 10:03:53;;;;;;;237.95;69.32;;;;;;;;;;4993093;28;20199;-43
2024/02/05 10:06:21;;;;;;;238.90;70.25;;;;;;;;;;4994423;28;20173;-43
2024/02/05 10:08:51;;;;;;;240.65;71.57;;;;;;;;;;4994500;28;20675;-43
2024/02/05 10:11:18;;;;;;;244.23;75.53;;;;;;;;;;4992098;28;20238;-43
2024/02/05 10:13:44;;;;;;;243.77;76.45;;;;;;;;;;4994510;28;20541;-43
2024/02/05 10:16:10;;;;;;;242.35;75.07;;;;;;;;;;5006842;28;20193;-43
2024/02/05 10:18:36;;;;;;;242.00;74.60;;;;;;;;;;4993459;28;20205;-43
2024/02/05 10:21:03;;;;;;;241.93;75.10;;;;;;;;;;4993518;28;20429;-43
2024/02/05 10:23:29;;;;;;;243.77;74.43;;;;;;;;;;4994062;28;20443;-44
2024/02/05 10:25:59;;;;;;;244.37;75.80;;;;;;;;;;4994185;28;20221;-43
2024/02/05 10:28:27;;;;;;;243.25;75.38;;;;;;;;;;4993965;28;20447;-43
2024/02/05 10:30:54;;;;;;;246.30;78.88;;;;;;;;;;4993238;28;20595;-43
2024/02/05 10:33:23;;;;;;;243.73;75.93;;;;;;;;;;4994192;28;20173;-43
2024/02/05 10:35:54;;;;;;;243.18;76.75;;;;;;;;;;4994000;28;20194;-43
2024/02/05 10:38:23;;;;;;;245.63;80.55;;;;;;;;;;4993892;28;20198;-44
2024/02/05 10:40:51;;;;;;;242.85;73.82;;;;;;;;;;4973562;28;20204;-44
2024/02/05 10:43:17;;;;;;;242.93;76.50;;;;;;;;;;4991590;28;20578;-43
2024/02/05 10:45:43;;;;;;;242.23;73.93;;;;;;;;;;4993691;28;20191;-43
2024/02/05 10:48:09;;;;;;;244.52;75.45;;;;;;;;;;4993353;28;20425;-44
2024/02/05 10:50:35;;;;;;;246.77;80.20;;;;;;;;;;4991602;28;20179;-43
2024/02/05 10:53:02;;;;;;;238.82;71.53;;;;;;;;;;4993637;28;20590;-43
2024/02/05 10:55:28;;;;;;;242.25;75.85;;;;;;;;;;4993588;28;20864;-43
2024/02/05 10:57:56;;;;;;;240.02;74.60;;;;;;;;;;4993510;28;20304;-43
2024/02/05 11:00:22;;;;;;;241.73;75.20;;;;;;;;;;4992051;28;20718;-43
2024/02/05 11:02:50;;;;;;;241.52;74.20;;;;;;;;;;4993150;28;20196;-43
2024/02/05 11:05:16;;;;;;;243.25;76.90;;;;;;;;;;4993389;28;20179;-43
2024/02/05 11:07:50;;;;;;;243.18;76.40;;;;;;;;;;4993457;28;20258;-43
2024/02/05 11:10:17;;;;;;;244.13;78.72;;;;;;;;;;4995896;28;20284;-43
2024/02/05 11:12:45;;;;;;;244.35;77.45;;;;;;;;;;4992601;28;20767;-43
2024/02/05 11:15:13;;;;;;;241.95;74.00;;;;;;;;;;4993229;28;20268;-43
2024/02/05 11:17:39;;;;;;;242.75;75.38;;;;;;;;;;4993094;28;20575;-43
2024/02/05 11:20:08;;;;;;;240.68;73.88;;;;;;;;;;4993120;28;20229;-43
2024/02/05 11:22:35;;;;;;;244.10;76.78;;;;;;;;;;4974440;28;20221;-44
2024/02/05 11:25:04;;;;;;;242.55;76.63;;;;;;;;;;4973543;28;20669;-43
2024/02/05 11:27:30;;;;;;;240.57;73.65;;;;;;;;;;4985956;28;20170;-43
2024/02/05 11:29:56;;;;;;;240.05;73.47;;;;;;;;;;4982948;28;20202;-44
2024/02/05 11:32:34;;;;;;;241.03;73.00;;;;;;;;;;4978722;28;20274;-43
2024/02/05 11:35:00;;;;;;;242.43;75.57;;;;;;;;;;4992773;28;20443;-43
2024/02/05 11:37:29;;;;;;;243.32;77.45;;;;;;;;;;4992896;28;20555;-43
2024/02/05 11:39:56;;;;;;;242.50;75.88;;;;;;;;;;4993001;28;20182;-43
2024/02/05 11:42:22;;;;;;;247.77;80.55;;;;;;;;;;4991986;28;20680;-43
2024/02/05 11:44:49;;;;;;;248.43;81.72;;;;;;;;;;4992565;28;20660;-43
2024/02/05 11:47:15;;;;;;;245.23;77.30;;;;;;;;;;4992636;28;20189;-43
2024/02/05 11:49:41;;;;;;;249.63;84.95;;;;;;;;;;4992636;28;20189;-44
2024/02/05 11:52:07;;;;;;;248.50;82.13;;;;;;;;;;4991964;28;20648;-44
2024/02/05 11:54:33;;;;;;;248.95;82.55;;;;;;;;;;4992505;28;20569;-43
2024/02/05 11:56:59;;;;;;;251.35;84.97;;;;;;;;;;4992487;28;20168;-44
2024/02/05 11:59:25;;;;;;;249.60;81.72;;;;;;;;;;4992418;28;20252;-44
2024/02/05 12:01:51;;;;;;;248.17;81.90;;;;;;;;;;4973348;28;20200;-43
2024/02/05 12:04:18;;;;;;;246.90;78.05;;;;;;;;;;4988424;28;20408;-43
2024/02/05 12:06:46;;;;;;;246.82;79.00;;;;;;;;;;4992294;28;20227;-43
2024/02/05 12:09:13;;;;;;;250.57;85.55;;;;;;;;;;4992252;28;20220;-43
2024/02/05 12:11:39;;;;;;;248.18;82.25;;;;;;;;;;4991659;28;20196;-43
2024/02/05 12:14:07;;;;;;;248.18;82.60;;;;;;;;;;4992265;28;20214;-43
2024/02/05 12:16:33;;;;;;;248.15;82.13;;;;;;;;;;4984443;28;20550;-44
2024/02/05 12:18:59;;;;;;;246.63;79.13;;;;;;;;;;4992187;28;20227;-43
2024/02/05 12:21:25;;;;;;;250.45;86.15;;;;;;;;;;4991403;28;20197;-43
2024/02/05 12:23:52;;;;;;;246.63;81.40;;;;;;;;;;4991361;28;20184;-43
2024/02/05 12:26:18;;;;;;;250.93;86.03;;;;;;;;;;4992223;28;20229;-44
2024/02/05 12:28:50;;;;;;;246.52;80.85;;;;;;;;;;4992211;28;20196;-43
2024/02/05 12:31:22;;;;;;;243.93;76.30;;;;;;;;;;4991348;28;20193;-43
2024/02/05 12:33:49;;;;;;;244.57;76.47;;;;;;;;;;4982439;28;20189;-43
2024/02/05 12:36:15;;;;;;;247.98;80.93;;;;;;;;;;4989831;28;20172;-43
2024/02/05 12:38:41;;;;;;;246.18;79.53;;;;;;;;;;4988863;28;20204;-43
2024/02/05 12:41:08;;;;;;;245.43;79.32;;;;;;;;;;4987409;28;20197;-43
2024/02/05 12:43:34;;;;;;;244.35;75.93;;;;;;;;;;4986815;28;20180;-43
2024/02/05 12:46:01;;;;;;;243.10;75.35;;;;;;;;;;4987208;28;20190;-43
2024/02/05 12:48:27;;;;;;;243.98;75.68;;;;;;;;;;4989768;28;20271;-43
2024/02/05 12:50:54;;;;;;;248.13;81.57;;;;;;;;;;4991036;28;20187;-43
2024/02/05 12:53:20;;;;;;;245.80;78.45;;;;;;;;;;4993255;28;20182;-43
2024/02/05 12:55:53;;;;;;;242.70;75.60;;;;;;;;;;4982928;28;20788;-43
2024/02/05 12:58:19;;;;;;;243.93;75.93;;;;;;;;;;4984097;28;20208;-43
2024/02/05 13:00:46;;;;;;;255.05;86.57;;;;;;;;;;4983869;28;20176;-43
2024/02/05 13:03:13;;;;;;;250.02;83.65;;;;;;;;;;4979495;28;20178;-43
2024/02/05 13:05:40;;;;;;;248.70;81.32;;;;;;;;;;4987519;28;20653;-43
2024/02/05 13:08:09;;;;;;;242.45;76.18;;;;;;;;;;4979585;28;20204;-43
2024/02/05 13:10:42;;;;;;;254.88;89.50;;;;;;;;;;4976673;28;20186;-44
2024/02/05 13:13:09;;;;;;;246.95;82.72;;;;;;;;;;4980981;28;20177;-43
2024/02/05 13:15:35;;;;;;;251.95;86.18;;;;;;;;;;4995304;28;20180;-44
2024/02/05 13:18:05;;;;;;;249.85;84.70;;;;;;;;;;4995613;28;20227;-43
2024/02/05 13:20:31;;;;;;;252.55;85.75;;;;;;;;;;4994647;28;20535;-43
2024/02/05 13:22:57;;;;;;;248.60;80.50;;;;;;;;;;4995112;28;20231;-43
2024/02/05 13:25:23;;;;;;;250.23;82.13;;;;;;;;;;4995158;28;20226;-43
2024/02/05 13:27:49;;;;;;;254.93;87.57;;;;;;;;;;4994982;28;20478;-43
2024/02/05 13:30:15;;;;;;;251.73;82.33;;;;;;;;;;4993971;28;20500;-43
2024/02/05 13:32:41;;;;;;;253.80;86.88;;;;;;;;;;4994501;28;20463;-43
2024/02/05 13:35:08;;;;;;;250.60;83.10;;;;;;;;;;4995096;28;20177;-43
2024/02/05 13:37:34;;;;;;;250.00;85.68;;;;;;;;;;4995092;28;20452;-43
2024/02/05 13:40:00;;;;;;;252.17;86.87;;;;;;;;;;4994992;28;20177;-43
2024/02/05 13:42:29;;;;;;;250.43;83.37;;;;;;;;;;4994176;28;20428;-43
2024/02/05 13:44:55;;;;;;;250.70;84.13;;;;;;;;;;4995025;28;20416;-44
2024/02/05 13:47:21;;;;;;;248.90;80.13;;;;;;;;;;4994947;28;20177;-43
2024/02/05 13:49:47;;;;;;;248.70;82.27;;;;;;;;;;4994934;28;20574;-43
2024/02/05 13:52:16;;;;;;;247.10;79.97;;;;;;;;;;4994065;28;20446;-43
2024/02/05 13:54:42;;;;;;;250.85;86.03;;;;;;;;;;4993757;28;20409;-43
2024/02/05 13:57:08;;;;;;;247.30;80.35;;;;;;;;;;4994638;28;20661;-43
2024/02/05 13:59:35;;;;;;;244.87;78.27;;;;;;;;;;4994543;28;20195;-43
2024/02/05 14:02:00;;;;;;;247.57;82.28;;;;;;;;;;4983448;28;20450;-43